Time;durP1;ratioP1;P1;durP2;ratioP2;P2;SDS_P1;SDS_P2;PMS_P1;PMS_P2;Temp;Humidity;BMP_temperature;BMP_pressure;BME280_temperature;BME280_humidity;BME280_pressure;Samples;Min_cycle;Max_cycle;Signal;HPM_P1;HPM_P2
2021/04/03 00:01:37;;;;;;;27.83;11.70;;;5.40;99.90;;;;;;4065746;34;20068;31
2021/04/03 00:04:07;;;;;;;16.10;7.13;;;5.40;99.90;;;;;;4067037;34;20050;31
2021/04/03 00:06:37;;;;;;;14.85;7.00;;;5.40;99.90;;;;;;4076605;34;20046;31
2021/04/03 00:09:07;;;;;;;19.55;8.00;;;5.30;99.90;;;;;;4030120;34;20134;31
2021/04/03 00:11:37;;;;;;;14.25;7.65;;;5.30;99.90;;;;;;4016784;35;20156;31
2021/04/03 00:14:07;;;;;;;18.40;7.43;;;5.30;99.90;;;;;;4039970;34;20075;31
2021/04/03 00:16:37;;;;;;;15.40;7.10;;;5.30;99.90;;;;;;4028590;34;20051;31
2021/04/03 00:19:07;;;;;;;19.10;7.10;;;5.30;99.90;;;;;;4030213;34;20033;31
2021/04/03 00:21:38;;;;;;;15.35;8.13;;;5.40;99.90;;;;;;4049656;34;20119;31
2021/04/03 00:24:08;;;;;;;16.73;8.77;;;5.40;99.90;;;;;;4051037;34;19997;31
2021/04/03 00:26:38;;;;;;;17.23;6.23;;;5.40;99.90;;;;;;4043124;34;19916;31
2021/04/03 00:29:08;;;;;;;13.90;7.63;;;5.40;99.90;;;;;;4052834;34;20051;31
2021/04/03 00:31:38;;;;;;;19.95;7.90;;;5.40;99.90;;;;;;4041450;34;20158;31
2021/04/03 00:34:08;;;;;;;26.90;9.13;;;5.50;99.90;;;;;;4063996;34;20046;31
2021/04/03 00:36:38;;;;;;;18.90;8.80;;;5.50;99.90;;;;;;4041676;34;20952;31
2021/04/03 00:39:18;;;;;;;17.75;10.50;;;5.50;99.90;;;;;;4050683;34;20926;31
2021/04/03 00:41:48;;;;;;;19.43;9.90;;;5.50;99.90;;;;;;4041680;34;20109;31
2021/04/03 00:44:18;;;;;;;18.33;9.32;;;5.50;99.90;;;;;;4042437;34;20080;31
2021/04/03 00:46:48;;;;;;;18.20;8.88;;;5.50;99.90;;;;;;4029363;34;20052;31
2021/04/03 00:49:18;;;;;;;19.20;7.82;;;5.50;99.90;;;;;;4046378;34;20047;31
2021/04/03 00:51:48;;;;;;;15.88;6.97;;;5.50;99.90;;;;;;4040929;34;20032;31
2021/04/03 00:54:18;;;;;;;15.55;8.15;;;5.50;99.90;;;;;;4044382;34;20028;31
2021/04/03 00:56:48;;;;;;;14.70;7.30;;;5.50;99.90;;;;;;4027481;34;20070;31
2021/04/03 00:59:18;;;;;;;12.73;7.37;;;5.50;99.90;;;;;;4026153;34;20151;31
2021/04/03 01:01:47;;;;;;;14.68;8.25;;;5.50;99.90;;;;;;4036977;34;20054;31
2021/04/03 01:04:18;;;;;;;16.05;7.75;;;5.50;99.90;;;;;;4029292;34;20810;31
2021/04/03 01:06:48;;;;;;;21.98;9.20;;;5.50;99.90;;;;;;4028609;34;20033;31
2021/04/03 01:09:18;;;;;;;18.15;8.82;;;5.50;99.90;;;;;;4012546;34;20052;31
2021/04/03 01:12:09;;;;;;;20.65;9.10;;;5.50;99.90;;;;;;4027597;34;20091;31
2021/04/03 01:15:05;;;;;;;17.50;9.27;;;5.50;99.90;;;;;;4049987;34;20028;31
2021/04/03 01:18:16;;;;;;;16.25;9.13;;;5.50;99.90;;;;;;4041208;34;20149;31
2021/04/03 01:21:01;;;;;;;22.15;9.80;;;5.50;99.90;;;;;;4036442;34;20040;31
2021/04/03 01:24:00;;;;;;;20.75;10.23;;;5.50;99.90;;;;;;4049605;34;20033;31
2021/04/03 01:26:51;;;;;;;22.70;9.90;;;5.50;99.90;;;;;;4063085;34;20087;31
2021/04/03 01:29:42;;;;;;;17.98;9.63;;;5.40;99.90;;;;;;4060620;34;20896;31
2021/04/03 01:32:19;;;;;;;22.05;10.20;;;5.40;99.90;;;;;;4050590;34;20032;31
2021/04/03 01:34:50;;;;;;;20.50;9.95;;;5.40;99.90;;;;;;4043621;34;20187;31
2021/04/03 01:37:21;;;;;;;20.15;10.43;;;5.40;99.90;;;;;;4040064;34;20073;31
2021/04/03 01:39:54;;;;;;;27.50;12.65;;;5.40;99.90;;;;;;4075119;34;20047;31
2021/04/03 01:42:26;;;;;;;23.92;11.40;;;5.40;99.90;;;;;;4040646;34;20051;31
2021/04/03 01:44:56;;;;;;;19.45;9.80;;;5.40;99.90;;;;;;4003037;35;20364;31
2021/04/03 01:47:28;;;;;;;20.00;10.25;;;5.30;99.90;;;;;;4038365;34;20040;31
2021/04/03 01:49:59;;;;;;;25.75;10.30;;;5.30;99.90;;;;;;4038683;34;21004;31
2021/04/03 01:52:32;;;;;;;19.00;11.20;;;5.30;99.90;;;;;;4038768;34;20095;31
2021/04/03 01:55:09;;;;;;;19.95;9.55;;;5.30;99.90;;;;;;4042110;34;20070;31
2021/04/03 01:57:39;;;;;;;;;;;5.30;99.90;;;;;;4051425;34;20146;31
2021/04/03 02:00:11;;;;;;;19.05;10.32;;;5.30;99.90;;;;;;4026174;34;19924;31
2021/04/03 02:02:59;;;;;;;19.80;10.25;;;5.30;99.90;;;;;;4029411;34;20032;31
2021/04/03 02:05:31;;;;;;;19.80;10.65;;;5.20;99.90;;;;;;4054236;34;20043;31
2021/04/03 02:08:30;;;;;;;21.90;10.75;;;5.20;99.90;;;;;;4067231;34;20152;31
2021/04/03 02:11:20;;;;;;;19.77;10.02;;;5.20;99.90;;;;;;4057299;34;20055;31
2021/04/03 02:13:53;;;;;;;18.38;8.77;;;5.20;99.90;;;;;;4050954;34;20051;31
2021/04/03 02:16:24;;;;;;;26.80;11.25;;;5.10;99.90;;;;;;4064066;34;20867;31
2021/04/03 02:18:54;;;;;;;21.55;10.20;;;5.10;99.90;;;;;;4050260;34;20124;31
2021/04/03 02:21:26;;;;;;;18.57;10.63;;;5.10;99.90;;;;;;4064640;34;20149;31
2021/04/03 02:23:57;;;;;;;21.92;10.68;;;5.10;99.90;;;;;;4062395;34;19915;31
2021/04/03 02:26:30;;;;;;;23.90;10.75;;;5.10;99.90;;;;;;4061603;34;20028;31
2021/04/03 02:29:00;;;;;;;25.27;10.27;;;5.10;99.90;;;;;;4028455;34;20187;31
2021/04/03 02:31:33;;;;;;;18.90;11.20;;;5.10;99.90;;;;;;4051708;34;20137;31
2021/04/03 02:34:03;;;;;;;19.02;10.50;;;5.00;99.90;;;;;;4051933;34;20219;31
2021/04/03 02:36:37;;;;;;;21.57;10.53;;;5.00;99.90;;;;;;4062777;34;20032;31
2021/04/03 02:39:07;;;;;;;20.92;10.02;;;5.00;99.90;;;;;;4061483;34;20037;31
2021/04/03 02:41:45;;;;;;;21.73;9.77;;;4.90;99.90;;;;;;4028671;34;20114;31
2021/04/03 02:44:22;;;;;;;24.15;10.10;;;4.90;99.90;;;;;;4033759;34;20854;31
2021/04/03 02:46:58;;;;;;;19.50;10.80;;;4.90;99.90;;;;;;4030287;34;20083;31
2021/04/03 02:49:31;;;;;;;20.83;9.80;;;4.90;99.90;;;;;;4039914;34;20836;31
2021/04/03 02:52:03;;;;;;;20.95;10.43;;;4.90;99.90;;;;;;4026408;34;20045;31
2021/04/03 02:54:33;;;;;;;23.10;10.00;;;4.90;99.90;;;;;;4015550;34;20053;31
2021/04/03 02:57:05;;;;;;;23.05;11.05;;;4.80;99.90;;;;;;4017311;34;20195;31
2021/04/03 02:59:40;;;;;;;23.63;10.60;;;4.90;99.90;;;;;;4052918;34;20096;31
2021/04/03 03:02:10;;;;;;;27.02;11.77;;;4.80;99.90;;;;;;4051752;34;20533;31
2021/04/03 03:04:40;;;;;;;25.85;12.25;;;4.80;99.90;;;;;;4039646;34;20044;31
2021/04/03 03:07:12;;;;;;;15.30;9.20;;;4.80;99.90;;;;;;4052573;34;20068;31
2021/04/03 03:09:42;;;;;;;20.52;9.63;;;4.70;99.90;;;;;;4030541;34;20073;31
2021/04/03 03:12:14;;;;;;;22.07;9.33;;;4.70;99.90;;;;;;4019542;34;19941;31
2021/04/03 03:15:10;;;;;;;23.83;9.70;;;4.70;99.90;;;;;;4042465;34;20053;31
2021/04/03 03:17:42;;;;;;;19.40;10.35;;;4.70;99.90;;;;;;4019248;34;20040;31
2021/04/03 03:20:13;;;;;;;19.20;9.00;;;4.70;99.90;;;;;;4023141;34;20029;31
2021/04/03 03:22:43;;;;;;;20.80;9.57;;;4.70;99.90;;;;;;4029991;34;20154;31
2021/04/03 03:25:13;;;;;;;20.42;10.43;;;4.70;99.90;;;;;;4040295;34;20043;31
2021/04/03 03:27:44;;;;;;;18.40;9.55;;;4.70;99.90;;;;;;4039411;34;20102;31
2021/04/03 03:30:19;;;;;;;24.20;9.90;;;4.80;99.90;;;;;;4051935;34;20028;31
2021/04/03 03:32:52;;;;;;;19.80;10.50;;;4.70;99.90;;;;;;4030847;34;20849;31
2021/04/03 03:35:20;;;;;;;24.58;9.98;;;4.80;99.90;;;;;;4051356;34;20032;31
2021/04/03 03:37:53;;;;;;;20.30;9.07;;;4.70;99.90;;;;;;4034827;34;20052;31
2021/04/03 03:40:26;;;;;;;17.90;8.55;;;4.70;99.90;;;;;;4054939;34;20047;31
2021/04/03 03:43:00;;;;;;;17.40;8.80;;;4.80;99.90;;;;;;4042084;34;20968;31
2021/04/03 03:45:35;;;;;;;21.50;9.52;;;4.70;99.90;;;;;;4031570;34;20146;31
2021/04/03 03:48:09;;;;;;;22.53;9.67;;;4.70;99.90;;;;;;4029099;34;20150;31
2021/04/03 03:50:41;;;;;;;17.95;8.45;;;4.70;99.90;;;;;;4039355;34;19930;31
2021/04/03 03:53:13;;;;;;;17.35;10.90;;;4.70;99.90;;;;;;4021270;34;20133;31
2021/04/03 03:55:44;;;;;;;15.85;8.95;;;4.70;99.90;;;;;;4039239;34;20143;31
2021/04/03 03:58:21;;;;;;;20.00;9.35;;;4.70;99.90;;;;;;4031387;34;20092;31
2021/04/03 04:00:55;;;;;;;24.70;9.05;;;4.70;99.90;;;;;;4033011;34;20032;31
2021/04/03 04:03:26;;;;;;;21.45;10.00;;;4.70;99.90;;;;;;4041411;34;20188;31
2021/04/03 04:06:05;;;;;;;21.67;9.57;;;4.70;99.90;;;;;;4051219;34;20159;31
2021/04/03 04:08:37;;;;;;;21.23;9.82;;;4.70;99.90;;;;;;4053150;34;20893;31
2021/04/03 04:11:14;;;;;;;25.00;8.60;;;4.70;99.90;;;;;;4043832;34;20040;31
2021/04/03 04:14:09;;;;;;;23.63;10.15;;;4.70;99.90;;;;;;4052311;34;20753;31
2021/04/03 04:16:47;;;;;;;21.80;9.20;;;4.80;99.90;;;;;;4037440;34;20041;31
2021/04/03 04:19:18;;;;;;;15.27;8.80;;;4.70;99.90;;;;;;4028219;34;20048;31
2021/04/03 04:21:52;;;;;;;22.02;9.98;;;4.70;99.90;;;;;;4026219;34;20235;31
2021/04/03 04:24:23;;;;;;;19.60;8.65;;;4.80;99.90;;;;;;4016115;34;20037;31
2021/04/03 04:26:55;;;;;;;18.27;8.50;;;4.70;99.90;;;;;;4044187;34;20127;31
2021/04/03 04:29:25;;;;;;;19.15;9.25;;;4.70;99.90;;;;;;4018225;34;20106;31
2021/04/03 04:32:01;;;;;;;15.75;8.90;;;4.70;99.90;;;;;;4048699;34;20094;31
2021/04/03 04:34:35;;;;;;;18.95;8.90;;;4.70;99.90;;;;;;4030226;34;20101;31
2021/04/03 04:37:06;;;;;;;19.23;8.95;;;4.70;99.90;;;;;;4037788;34;20088;31
2021/04/03 04:39:43;;;;;;;18.98;8.95;;;4.70;99.90;;;;;;4067896;34;20039;31
2021/04/03 04:42:22;;;;;;;17.55;7.85;;;4.70;99.90;;;;;;4066272;34;20117;31
2021/04/03 04:45:00;;;;;;;19.75;8.50;;;4.80;99.90;;;;;;4044393;34;20154;31
2021/04/03 04:47:33;;;;;;;19.33;8.63;;;4.80;99.90;;;;;;4015303;34;20039;31
2021/04/03 04:50:09;;;;;;;18.55;9.25;;;4.80;99.90;;;;;;4017927;34;20067;31
2021/04/03 04:52:41;;;;;;;19.07;8.03;;;4.80;99.90;;;;;;4053154;34;20044;31
2021/04/03 04:55:13;;;;;;;16.05;8.65;;;4.80;99.90;;;;;;4056712;34;20062;31
2021/04/03 04:57:46;;;;;;;15.35;8.25;;;4.80;99.90;;;;;;4019246;34;20888;31
2021/04/03 05:00:21;;;;;;;15.90;9.00;;;4.80;99.90;;;;;;4039073;34;20091;31
2021/04/03 05:03:01;;;;;;;12.80;8.20;;;4.80;99.90;;;;;;4018595;34;20033;31
2021/04/03 05:05:31;;;;;;;16.77;9.37;;;4.90;99.90;;;;;;4041164;34;20068;31
2021/04/03 05:08:01;;;;;;;18.45;9.70;;;4.90;99.90;;;;;;4055351;34;20055;31
2021/04/03 05:10:31;;;;;;;16.65;9.70;;;4.80;99.90;;;;;;4064461;34;20068;31
2021/04/03 05:13:02;;;;;;;17.80;10.40;;;4.80;99.90;;;;;;4054152;34;20062;31
2021/04/03 05:15:32;;;;;;;14.00;7.55;;;4.80;99.90;;;;;;4044594;34;20152;31
2021/04/03 05:18:02;;;;;;;19.90;9.43;;;4.80;99.90;;;;;;4038611;34;20087;31
2021/04/03 05:20:32;;;;;;;21.67;9.65;;;4.80;99.90;;;;;;4039021;34;20083;31
2021/04/03 05:23:02;;;;;;;16.80;9.05;;;4.90;99.90;;;;;;4065864;34;20027;31
2021/04/03 05:25:32;;;;;;;19.45;9.65;;;4.90;99.90;;;;;;4054424;34;20924;31
2021/04/03 05:28:02;;;;;;;20.25;10.38;;;4.90;99.90;;;;;;4064457;34;20051;31
2021/04/03 05:30:32;;;;;;;19.10;10.25;;;4.90;99.90;;;;;;4028809;34;20028;31
2021/04/03 05:35:41;;;;;;;17.15;8.13;;;5.00;99.90;;;;;;4107991;34;20340;31
2021/04/03 05:38:11;;;;;;;14.20;8.27;;;5.00;99.90;;;;;;4071834;34;21039;31
2021/04/03 05:40:41;;;;;;;20.00;8.02;;;5.00;99.90;;;;;;4047569;34;20977;31
2021/04/03 05:43:11;;;;;;;17.65;8.38;;;5.10;99.90;;;;;;4057764;34;20093;31
2021/04/03 05:45:42;;;;;;;18.93;9.03;;;5.20;99.90;;;;;;4053600;34;20052;31
2021/04/03 05:48:13;;;;;;;14.85;7.85;;;5.30;99.90;;;;;;4058026;34;21121;31
2021/04/03 05:50:43;;;;;;;18.25;7.40;;;5.40;99.90;;;;;;4082645;34;20031;31
2021/04/03 05:53:13;;;;;;;11.85;6.40;;;5.60;99.90;;;;;;4051162;34;20042;31
2021/04/03 05:55:43;;;;;;;19.95;7.07;;;5.80;99.90;;;;;;4069049;34;20032;31
2021/04/03 05:58:13;;;;;;;14.65;6.45;;;6.00;99.90;;;;;;4080760;34;20047;31
2021/04/03 06:00:43;;;;;;;15.25;6.88;;;6.10;99.90;;;;;;4070088;34;20068;31
2021/04/03 06:03:16;;;;;;;12.75;6.40;;;6.20;99.90;;;;;;4072652;34;20038;31
2021/04/03 06:05:49;;;;;;;16.08;7.10;;;6.20;99.90;;;;;;4078581;34;20918;31
2021/04/03 06:08:20;;;;;;;20.25;7.50;;;6.30;99.90;;;;;;4081611;34;20066;31
2021/04/03 06:11:10;;;;;;;12.20;7.07;;;6.40;99.90;;;;;;4054567;34;20032;31
2021/04/03 06:14:03;;;;;;;18.35;7.90;;;6.50;99.90;;;;;;4070074;34;20046;31
2021/04/03 06:16:38;;;;;;;11.65;6.50;;;6.60;99.90;;;;;;4080498;34;20086;31
2021/04/03 06:19:23;;;;;;;13.37;7.23;;;6.50;99.90;;;;;;4083694;34;20046;31
2021/04/03 06:21:54;;;;;;;15.20;6.35;;;6.50;99.90;;;;;;4092215;34;20031;31
2021/04/03 06:24:34;;;;;;;16.70;7.53;;;6.80;99.90;;;;;;4082128;34;20902;31
2021/04/03 06:27:06;;;;;;;39.95;7.55;;;7.10;99.90;;;;;;4068821;34;20116;31
2021/04/03 06:29:40;;;;;;;12.27;6.35;;;7.40;99.90;;;;;;4094230;34;20038;31
2021/04/03 06:32:21;;;;;;;10.10;6.40;;;7.70;99.90;;;;;;4093046;34;20824;31
2021/04/03 06:34:53;;;;;;;15.75;6.85;;;7.60;99.90;;;;;;4070207;34;20031;31
2021/04/03 06:37:25;;;;;;;16.05;7.30;;;7.60;99.90;;;;;;4069696;34;20200;31
2021/04/03 06:40:04;;;;;;;12.15;6.55;;;7.50;99.90;;;;;;4061634;34;20054;31
2021/04/03 06:42:40;;;;;;;17.98;7.97;;;7.30;99.90;;;;;;4069102;34;20032;31
2021/04/03 06:45:29;;;;;;;15.80;7.50;;;7.10;99.90;;;;;;4083817;34;20047;31
2021/04/03 06:48:03;;;;;;;14.95;7.95;;;6.90;99.90;;;;;;4057612;34;20229;31
2021/04/03 06:50:40;;;;;;;19.02;9.45;;;6.70;99.90;;;;;;4090641;34;20049;31
2021/04/03 06:53:18;;;;;;;15.97;8.23;;;6.60;99.90;;;;;;4067583;34;20028;31
2021/04/03 06:55:49;;;;;;;15.13;8.53;;;6.50;99.90;;;;;;4080115;34;20031;31
2021/04/03 06:58:20;;;;;;;18.65;8.45;;;6.40;99.90;;;;;;4063378;34;20035;31
2021/04/03 07:00:50;;;;;;;16.85;8.18;;;6.40;99.90;;;;;;4056914;34;20044;31
2021/04/03 07:03:23;;;;;;;19.63;7.57;;;6.40;99.90;;;;;;4068043;34;20313;31
2021/04/03 07:05:53;;;;;;;16.25;7.57;;;6.50;99.90;;;;;;4056622;34;20031;31
2021/04/03 07:08:24;;;;;;;15.20;7.85;;;6.70;99.90;;;;;;4053175;34;20050;31
2021/04/03 07:10:54;;;;;;;17.80;7.90;;;6.70;99.90;;;;;;4079512;34;20082;31
2021/04/03 07:13:24;;;;;;;19.20;7.45;;;7.00;99.90;;;;;;4056982;34;20921;31
2021/04/03 07:15:57;;;;;;;14.20;7.55;;;7.30;99.90;;;;;;4053541;34;20047;31
2021/04/03 07:18:25;;;;;;;15.80;7.10;;;7.80;99.90;;;;;;4021596;34;21084;31
2021/04/03 07:20:55;;;;;;;13.55;6.78;;;8.10;99.90;;;;;;4056393;34;20082;31
2021/04/03 07:23:28;;;;;;;13.65;6.50;;;8.30;99.90;;;;;;4060533;34;20056;31
2021/04/03 07:25:59;;;;;;;14.47;5.90;;;8.50;99.90;;;;;;4059833;34;20031;31
2021/04/03 07:28:37;;;;;;;13.10;7.05;;;8.90;99.90;;;;;;4045851;34;20047;31
2021/04/03 07:31:08;;;;;;;11.80;5.70;;;9.30;99.90;;;;;;4059348;34;20028;31
2021/04/03 07:33:57;;;;;;;13.90;7.63;;;9.70;99.90;;;;;;4076078;34;20071;31
2021/04/03 07:36:33;;;;;;;12.73;6.53;;;9.70;99.90;;;;;;4042794;34;19916;31
2021/04/03 07:39:02;;;;;;;16.00;6.65;;;9.80;99.90;;;;;;4042688;34;21589;31
2021/04/03 07:41:38;;;;;;;12.07;5.75;;;9.80;99.90;;;;;;4045994;34;20032;31
2021/04/03 07:44:12;;;;;;;12.93;5.97;;;9.60;99.90;;;;;;4057279;34;20042;31
2021/04/03 07:46:46;;;;;;;12.37;5.63;;;9.10;99.90;;;;;;4042613;34;20032;31
2021/04/03 07:49:33;;;;;;;10.50;5.68;;;8.70;99.90;;;;;;4027312;34;20052;31
2021/04/03 07:52:02;;;;;;;17.02;6.00;;;8.50;99.90;;;;;;4046589;34;20875;31
2021/04/03 07:54:32;;;;;;;12.57;6.00;;;8.20;99.90;;;;;;4066382;34;20066;31
2021/04/03 07:57:03;;;;;;;13.68;5.60;;;8.10;99.90;;;;;;4055254;34;20028;31
2021/04/03 07:59:43;;;;;;;15.17;5.77;;;8.00;99.90;;;;;;4056703;34;20154;31
2021/04/03 08:02:18;;;;;;;11.50;6.10;;;8.20;99.90;;;;;;4066378;34;20032;31
2021/04/03 08:04:48;;;;;;;11.35;6.25;;;8.40;99.90;;;;;;4066060;34;20032;31
2021/04/03 08:07:19;;;;;;;10.17;6.00;;;8.60;99.90;;;;;;4054344;34;20032;31
2021/04/03 08:09:49;;;;;;;12.98;6.13;;;8.70;99.90;;;;;;4065361;34;20028;31
2021/04/03 08:12:22;;;;;;;12.52;6.55;;;8.80;99.90;;;;;;4053471;34;20033;31
2021/04/03 08:14:52;;;;;;;11.85;5.90;;;8.60;99.90;;;;;;4087131;34;21017;31
2021/04/03 08:17:22;;;;;;;17.30;7.63;;;8.50;99.90;;;;;;4054480;34;20047;31
2021/04/03 08:19:52;;;;;;;10.07;5.35;;;8.70;99.90;;;;;;4042862;34;20044;31
2021/04/03 08:22:22;;;;;;;13.88;6.53;;;8.80;99.90;;;;;;4074125;34;20146;31
2021/04/03 08:24:56;;;;;;;14.30;6.05;;;9.10;99.90;;;;;;4075663;34;20032;31
2021/04/03 08:27:32;;;;;;;13.10;5.35;;;9.20;99.90;;;;;;4077413;34;25126;31
2021/04/03 08:30:21;;;;;;;13.70;5.13;;;9.40;99.90;;;;;;4067734;34;20023;31
2021/04/03 08:33:11;;;;;;;13.80;6.20;;;9.40;99.90;;;;;;4042112;34;20276;31
2021/04/03 08:35:42;;;;;;;14.98;6.28;;;9.40;99.90;;;;;;4100680;34;20051;31
2021/04/03 08:38:14;;;;;;;10.52;5.45;;;9.70;99.90;;;;;;4055105;34;20046;31
2021/04/03 08:40:45;;;;;;;11.82;5.85;;;9.90;99.90;;;;;;4056527;34;20953;31
2021/04/03 08:43:22;;;;;;;6.95;4.80;;;9.80;99.90;;;;;;4057670;34;20845;31
2021/04/03 08:45:53;;;;;;;9.07;4.77;;;9.80;99.90;;;;;;4069257;34;20147;31
2021/04/03 08:48:22;;;;;;;10.10;5.60;;;9.70;99.90;;;;;;4088244;34;20850;31
2021/04/03 08:50:52;;;;;;;9.90;4.90;;;9.70;99.90;;;;;;4042025;34;20079;31
2021/04/03 08:53:22;;;;;;;10.50;5.30;;;10.10;99.90;;;;;;4046350;34;20858;31
2021/04/03 08:55:52;;;;;;;9.65;5.30;;;10.40;99.90;;;;;;4066993;34;20152;31
2021/04/03 08:58:22;;;;;;;12.88;5.88;;;10.70;99.90;;;;;;4072759;34;20160;31
2021/04/03 09:00:52;;;;;;;14.97;5.73;;;10.60;99.90;;;;;;4030697;34;20044;31
2021/04/03 09:03:22;;;;;;;8.80;5.68;;;10.40;99.90;;;;;;4054156;34;20723;31
2021/04/03 09:05:52;;;;;;;8.90;5.17;;;10.30;99.90;;;;;;4053089;34;20032;31
2021/04/03 09:08:24;;;;;;;10.05;5.85;;;10.10;99.90;;;;;;4062412;34;20225;31
2021/04/03 09:11:03;;;;;;;9.98;5.63;;;10.00;99.90;;;;;;4078897;34;20944;31
2021/04/03 09:13:45;;;;;;;9.52;6.10;;;10.00;99.90;;;;;;4066554;34;20041;31
2021/04/03 09:16:17;;;;;;;9.68;4.93;;;9.90;99.90;;;;;;4078191;34;20843;31
2021/04/03 09:19:08;;;;;;;8.80;4.75;;;9.80;99.90;;;;;;4032235;34;20141;31
2021/04/03 09:21:43;;;;;;;11.53;5.63;;;9.80;99.90;;;;;;4037219;34;20038;31
2021/04/03 09:24:13;;;;;;;8.50;5.43;;;9.70;99.90;;;;;;4042603;34;20032;31
2021/04/03 09:26:43;;;;;;;9.43;6.53;;;9.70;99.90;;;;;;4042196;34;20051;31
2021/04/03 09:29:13;;;;;;;10.85;5.97;;;9.70;99.90;;;;;;4032168;34;20032;31
2021/04/03 09:31:44;;;;;;;9.93;6.57;;;9.80;99.90;;;;;;4042186;34;20861;31
2021/04/03 09:34:18;;;;;;;12.60;6.60;;;10.00;99.90;;;;;;4020819;34;20033;31
2021/04/03 09:36:50;;;;;;;8.95;5.90;;;10.10;99.90;;;;;;4051995;34;19995;31
2021/04/03 09:39:20;;;;;;;8.93;5.50;;;10.20;99.90;;;;;;4054043;34;20051;31
2021/04/03 09:41:53;;;;;;;10.00;5.45;;;10.50;99.90;;;;;;4053485;34;20215;31
2021/04/03 09:44:23;;;;;;;10.25;5.65;;;10.50;99.90;;;;;;4054185;34;20070;31
2021/04/03 09:46:53;;;;;;;11.68;5.50;;;10.70;99.90;;;;;;4030193;34;20123;31
2021/04/03 09:49:23;;;;;;;9.13;5.07;;;11.00;99.90;;;;;;4068705;34;20032;31
2021/04/03 09:51:53;;;;;;;7.95;4.95;;;11.10;99.90;;;;;;4055702;34;20031;31
2021/04/03 09:54:23;;;;;;;6.40;4.13;;;11.30;99.90;;;;;;4069461;34;20031;31
2021/04/03 09:56:53;;;;;;;10.32;5.68;;;11.70;99.90;;;;;;4057746;34;20031;31
2021/04/03 09:59:23;;;;;;;8.75;5.13;;;11.80;99.90;;;;;;4067816;34;20109;31
2021/04/03 10:01:54;;;;;;;9.43;5.03;;;11.80;99.90;;;;;;4052705;34;20120;31
2021/04/03 10:04:25;;;;;;;7.28;5.50;;;11.80;99.90;;;;;;4068381;34;20042;31
2021/04/03 10:06:55;;;;;;;8.98;4.97;;;11.70;99.90;;;;;;4042920;34;20078;31
2021/04/03 10:09:25;;;;;;;7.75;4.30;;;11.70;99.90;;;;;;4054565;34;20102;31
2021/04/03 10:11:57;;;;;;;6.20;3.50;;;11.60;99.90;;;;;;4031154;34;20043;31
2021/04/03 10:14:27;;;;;;;9.75;3.90;;;11.60;99.90;;;;;;4044991;34;20223;31
2021/04/03 10:17:17;;;;;;;6.80;3.10;;;11.80;99.90;;;;;;4061249;34;20046;31
2021/04/03 10:19:47;;;;;;;8.15;3.78;;;11.80;99.50;;;;;;4066433;34;20032;31
2021/04/03 10:22:17;;;;;;;9.10;4.65;;;11.90;99.90;;;;;;4066966;34;20028;31
2021/04/03 10:24:47;;;;;;;7.07;4.10;;;12.10;99.90;;;;;;4069993;34;20023;31
2021/04/03 10:27:17;;;;;;;6.00;3.85;;;12.10;99.90;;;;;;4048588;34;20117;31
2021/04/03 10:29:47;;;;;;;7.30;3.15;;;12.40;99.90;;;;;;4079236;34;20055;31
2021/04/03 10:32:17;;;;;;;7.38;3.67;;;12.60;96.30;;;;;;4079911;34;20083;31
2021/04/03 10:34:47;;;;;;;9.25;3.25;;;12.70;97.30;;;;;;4069979;34;20031;31
2021/04/03 10:37:17;;;;;;;5.97;3.28;;;12.90;95.80;;;;;;4069149;34;20156;31
2021/04/03 10:39:47;;;;;;;6.77;3.10;;;13.00;95.80;;;;;;4044560;34;20044;31
2021/04/03 10:42:17;;;;;;;8.15;4.13;;;13.20;96.20;;;;;;4069286;34;20032;31
2021/04/03 10:44:47;;;;;;;13.47;4.40;;;13.50;97.20;;;;;;4068991;34;20031;31
2021/04/03 10:47:15;;;;;;;11.73;3.78;;;13.80;99.90;;;;;;4068221;34;20027;31
2021/04/03 10:49:45;;;;;;;7.65;3.70;;;14.10;99.90;;;;;;4070992;34;20037;31
2021/04/03 10:52:15;;;;;;;13.05;5.28;;;14.30;92.40;;;;;;4068467;34;20151;31
2021/04/03 10:54:45;;;;;;;8.15;3.25;;;14.60;95.00;;;;;;4058082;34;20031;31
2021/04/03 10:57:15;;;;;;;6.88;2.88;;;14.40;93.20;;;;;;4067852;34;20046;31
2021/04/03 10:59:45;;;;;;;5.82;2.50;;;14.30;90.30;;;;;;4044481;34;20028;31
2021/04/03 11:02:15;;;;;;;7.00;3.75;;;14.20;92.60;;;;;;4067118;34;20862;31
2021/04/03 11:04:45;;;;;;;13.95;5.90;;;14.10;91.20;;;;;;4067736;34;20031;31
2021/04/03 11:07:15;;;;;;;8.00;3.47;;;14.10;90.40;;;;;;4077663;34;20046;31
2021/04/03 11:09:45;;;;;;;7.57;2.90;;;14.20;90.50;;;;;;4066290;34;20027;31
2021/04/03 11:12:15;;;;;;;13.05;5.50;;;14.20;83.80;;;;;;4067869;34;20043;31
2021/04/03 11:14:47;;;;;;;8.82;5.57;;;14.20;85.60;;;;;;4067990;34;20078;31
2021/04/03 11:17:17;;;;;;;7.85;2.78;;;14.10;83.70;;;;;;4066988;34;20115;31
2021/04/03 11:19:47;;;;;;;13.10;5.95;;;13.80;84.20;;;;;;4033637;34;20028;31
2021/04/03 11:22:17;;;;;;;8.30;2.80;;;13.60;82.80;;;;;;4068897;34;20113;31
2021/04/03 11:24:47;;;;;;;6.30;2.72;;;13.30;83.80;;;;;;4079565;34;20233;31
2021/04/03 11:27:17;;;;;;;6.72;2.45;;;13.00;85.50;;;;;;4068558;34;20925;31
2021/04/03 11:29:47;;;;;;;6.63;2.42;;;12.90;89.00;;;;;;4039803;34;20035;31
2021/04/03 11:32:16;;;;;;;8.32;3.35;;;13.00;87.40;;;;;;4069451;34;20415;31
2021/04/03 11:34:46;;;;;;;4.75;2.47;;;13.10;88.10;;;;;;4045333;34;20044;31
2021/04/03 11:37:20;;;;;;;4.03;2.57;;;13.10;84.40;;;;;;4059578;34;20083;31
2021/04/03 11:39:50;;;;;;;5.30;2.80;;;12.80;83.30;;;;;;4042522;34;20080;31
2021/04/03 11:42:19;;;;;;;3.75;2.40;;;12.60;82.70;;;;;;4079564;34;20050;31
2021/04/03 11:44:47;;;;;;;2.75;1.52;;;12.40;83.70;;;;;;4073835;34;20109;31
2021/04/03 11:47:17;;;;;;;4.90;2.50;;;12.00;84.40;;;;;;4078830;34;20045;31
2021/04/03 11:49:47;;;;;;;5.15;2.90;;;11.70;86.60;;;;;;4042195;34;20069;31
2021/04/03 11:52:17;;;;;;;7.32;3.50;;;11.40;89.00;;;;;;4079204;34;20049;31
2021/04/03 11:54:47;;;;;;;7.93;3.53;;;11.20;92.10;;;;;;4058382;34;20046;31
2021/04/03 11:57:17;;;;;;;6.55;3.60;;;11.10;91.80;;;;;;4056002;34;20078;31
2021/04/03 11:59:47;;;;;;;5.67;3.10;;;11.00;93.20;;;;;;4054538;34;20052;31
2021/04/03 12:02:17;;;;;;;5.60;3.10;;;11.00;93.10;;;;;;4076972;34;20024;31
2021/04/03 12:04:47;;;;;;;5.18;2.70;;;10.90;94.50;;;;;;4042353;34;20066;31
2021/04/03 12:07:17;;;;;;;5.00;2.37;;;10.90;96.80;;;;;;4058582;34;20804;31
2021/04/03 12:10:09;;;;;;;7.07;2.33;;;10.70;97.30;;;;;;4044307;34;20040;-78
2021/04/03 12:12:39;;;;;;;3.70;1.60;;;10.50;99.90;;;;;;4060408;34;20047;31
2021/04/03 12:15:13;;;;;;;12.13;2.75;;;10.30;99.90;;;;;;4067558;34;20148;31
2021/04/03 12:17:48;;;;;;;2.20;1.15;;;9.70;99.90;;;;;;4062957;34;20116;31
2021/04/03 12:20:18;;;;;;;4.10;2.10;;;9.20;99.90;;;;;;4053477;34;20065;31
2021/04/03 12:22:48;;;;;;;4.45;2.55;;;8.70;99.90;;;;;;4043920;34;20983;31
2021/04/03 12:25:18;;;;;;;3.15;1.80;;;8.10;99.90;;;;;;4078697;34;20054;31
2021/04/03 12:27:48;;;;;;;3.72;2.10;;;7.90;99.90;;;;;;4062626;34;20072;31
2021/04/03 12:30:18;;;;;;;3.87;1.50;;;8.20;99.90;;;;;;4029552;34;20052;31
2021/04/03 12:32:48;;;;;;;3.58;2.00;;;8.20;99.90;;;;;;4067256;34;20051;31
2021/04/03 12:35:18;;;;;;;4.10;2.17;;;7.80;99.90;;;;;;4079498;34;20963;31
2021/04/03 12:37:48;;;;;;;2.72;1.65;;;7.40;99.90;;;;;;4054278;34;20036;31
2021/04/03 12:40:18;;;;;;;4.32;2.38;;;7.00;99.90;;;;;;4067846;34;20042;31
2021/04/03 12:42:48;;;;;;;2.70;1.70;;;6.80;99.90;;;;;;4058047;34;20980;31
2021/04/03 12:45:19;;;;;;;4.68;1.90;;;6.60;99.90;;;;;;4067305;34;20153;31
2021/04/03 12:47:49;;;;;;;5.30;2.15;;;6.50;99.90;;;;;;4068693;34;20931;31
2021/04/03 12:50:19;;;;;;;3.25;2.00;;;6.40;99.90;;;;;;4055945;34;20164;31
2021/04/03 12:52:49;;;;;;;4.13;2.00;;;6.40;99.90;;;;;;4078592;34;20058;31
2021/04/03 12:55:19;;;;;;;5.55;2.40;;;6.40;99.90;;;;;;4069390;34;20039;31
2021/04/03 12:57:49;;;;;;;3.90;2.20;;;6.40;99.90;;;;;;4055478;34;20039;31
2021/04/03 13:00:19;;;;;;;11.30;3.10;;;6.50;99.90;;;;;;4068580;34;20310;31
2021/04/03 13:02:50;;;;;;;6.72;4.88;;;6.60;99.90;;;;;;4056656;34;20985;31
2021/04/03 13:05:20;;;;;;;6.95;3.55;;;6.70;99.90;;;;;;4054258;34;20032;31
2021/04/03 13:07:50;;;;;;;4.10;2.40;;;6.80;99.90;;;;;;4055790;34;20032;31
2021/04/03 13:10:22;;;;;;;5.25;3.10;;;6.90;99.90;;;;;;4030342;34;20048;31
2021/04/03 13:12:53;;;;;;;3.25;2.45;;;7.00;99.90;;;;;;4067530;34;20047;31
2021/04/03 13:15:32;;;;;;;3.90;2.20;;;7.10;99.90;;;;;;4045688;34;20046;31
2021/04/03 13:18:02;;;;;;;3.35;1.88;;;7.20;99.90;;;;;;4057607;34;20148;31
2021/04/03 13:20:34;;;;;;;4.82;1.83;;;7.30;99.90;;;;;;4067215;34;20027;31
2021/04/03 13:23:05;;;;;;;3.80;1.60;;;7.40;99.90;;;;;;4077872;34;20031;31
2021/04/03 13:25:35;;;;;;;4.18;2.17;;;7.40;99.90;;;;;;4042690;34;20033;31
2021/04/03 13:28:06;;;;;;;4.97;2.58;;;7.40;99.90;;;;;;4077930;34;20051;31
2021/04/03 13:30:35;;;;;;;3.00;1.70;;;7.40;99.90;;;;;;4067296;34;22151;31